• Join FlightAware (Why Join?)
  • Login
  • US Flag 
02:14AM EST


 

Airport Tracker/Info


-or-


 

Live Flight TrackerFlight Track Log ✈ DAL6234 ✈ 08-Apr-2013 ✈ KSYR - KLGA

Flight Track Log - Related Links

Times and Time Zones

All times are in EDT time to prevent confusion due to time zone crossing. See the DAL6234 flight status page for this flight to view local times or setup timezone preferences in your user account.

Time Position Orientation Groundspeed Altitude Reporting Facility
EDT Latitude Longitude Course Direction KTS MPH feet Rate Location/Type
05:39PM 43.1097 -76.0636 88° East 160 184 2,400  Level Boston Center
05:40PM 43.0544 -75.9694 129° Southeast 220 253 5,500 2,520 Climbing Boston Center
05:41PM 42.9961 -75.8981 138° Southeast 257 296 8,800 3,000 Climbing Boston Center
05:42PM 42.9339 -75.8208 138° Southeast 285 328 11,500 2,280 Climbing Boston Center
05:43PM 42.8656 -75.7347 137° Southeast 315 362 13,500 1,980 Climbing Boston Center
05:44PM 42.7867 -75.6428 139° Southeast 350 403 15,500 2,100 Climbing Boston Center
05:45PM 42.7083 -75.5400 136° Southeast 373 429 17,800 1,200 Climbing Boston Center
05:46PM 42.6256 -75.4369 137° Southeast 393 452 18,000 60 Climbing Boston Center
05:47PM 42.5622 -75.3042 123° Southeast 399 459 18,000  Level Boston Center
05:48PM 42.4933 -75.1461 121° Southeast 408 470 18,000  Level Boston Center
05:49PM 42.4378 -75.0228 121° Southeast 402 463 18,000  Level Boston Center
05:50PM 42.3822 -74.8967 121° Southeast 396 456 18,000  Level Boston Center
05:51PM 42.3206 -74.7539 120° Southeast 396 456 18,000  Level Boston Center
05:53PM 42.2708 -74.6397 120° Southeast 396 456 18,000  Level Boston Center
05:53PM 42.2125 -74.5144 122° Southeast 396 456 18,000  Level Boston Center
05:54PM 42.1506 -74.3722 120° Southeast 396 456 18,000  Level Boston Center
05:55PM 42.0836 -74.2583 128° Southeast 397 457 18,000  Level Boston Center
05:57PM 41.9844 -74.2025 157° South 375 432 18,000  Level Boston Center
05:58PM 41.8894 -74.1467 156° South 383 441 18,000 -60 Level Boston Center
05:59PM 41.7922 -74.0914 157° South 383 441 17,900 -1,080 Descending Boston Center
05:59PM 41.6992 -74.0361 156° South 368 423 15,900 -1,920 Descending Boston Center
06:00PM 41.6144 -73.9839 155° Southeast 352 405 14,200 -1,740 Descending Boston Center
06:02PM 41.5333 -73.9333 155° Southeast 332 382 12,400 -1,740 Descending New York TRACON
06:03PM 41.4500 -73.8833 156° South 330 380 10,700 -1,500 Descending New York TRACON
06:04PM 41.3667 -73.8167 149° Southeast 297 342 9,400 -960 Descending New York TRACON
06:05PM 41.3000 -73.7667 151° Southeast 281 323 8,800 -1,200 Descending New York TRACON
06:06PM 41.2500 -73.7000 135° Southeast 276 318 7,000 -1,800 Descending New York TRACON
06:07PM 41.1833 -73.6500 151° Southeast 272 313 5,300 -1,500 Descending New York TRACON
06:08PM 41.1167 -73.6333 169° South 257 296 4,000 -660 Descending New York TRACON
06:09PM 41.0500 -73.6667 201° Southwest 249 287 4,000  Level New York TRACON
06:09PM 41.0000 -73.7000 207° Southwest 241 277 4,000 -600 Level New York TRACON
06:10PM 40.9333 -73.7500 210° Southwest 240 276 2,900 -1,020 Descending New York TRACON
06:11PM 40.8833 -73.7833 207° Southwest 224 258 2,000 -900 Descending New York TRACON